sensor_id;sensor_type;location;lat;lon;timestamp;P1;durP1;ratioP1;P2;durP2;ratioP2
27025;SDS011;14565;48.626;8.978;2024-03-08T00:01:09;45.58;;;24.50;;
27025;SDS011;14565;48.626;8.978;2024-03-08T00:03:35;46.97;;;24.50;;
27025;SDS011;14565;48.626;8.978;2024-03-08T00:06:01;46.70;;;23.45;;
27025;SDS011;14565;48.626;8.978;2024-03-08T00:08:27;50.10;;;25.55;;
27025;SDS011;14565;48.626;8.978;2024-03-08T00:10:53;48.20;;;25.73;;
27025;SDS011;14565;48.626;8.978;2024-03-08T00:13:19;51.95;;;25.35;;
27025;SDS011;14565;48.626;8.978;2024-03-08T00:15:44;51.58;;;26.27;;
27025;SDS011;14565;48.626;8.978;2024-03-08T00:18:10;51.15;;;25.65;;
27025;SDS011;14565;48.626;8.978;2024-03-08T00:20:36;52.65;;;26.52;;
27025;SDS011;14565;48.626;8.978;2024-03-08T00:23:02;49.80;;;25.45;;
27025;SDS011;14565;48.626;8.978;2024-03-08T00:25:28;48.08;;;25.33;;
27025;SDS011;14565;48.626;8.978;2024-03-08T00:27:53;46.00;;;25.17;;
27025;SDS011;14565;48.626;8.978;2024-03-08T00:30:24;48.92;;;24.90;;
27025;SDS011;14565;48.626;8.978;2024-03-08T00:32:50;49.10;;;23.85;;
27025;SDS011;14565;48.626;8.978;2024-03-08T00:35:16;49.25;;;25.45;;
27025;SDS011;14565;48.626;8.978;2024-03-08T00:37:43;50.40;;;27.02;;
27025;SDS011;14565;48.626;8.978;2024-03-08T00:40:11;51.33;;;26.08;;
27025;SDS011;14565;48.626;8.978;2024-03-08T00:42:37;47.97;;;24.35;;
27025;SDS011;14565;48.626;8.978;2024-03-08T00:45:04;50.05;;;26.02;;
27025;SDS011;14565;48.626;8.978;2024-03-08T00:47:30;54.17;;;26.58;;
27025;SDS011;14565;48.626;8.978;2024-03-08T00:49:56;54.95;;;27.85;;
27025;SDS011;14565;48.626;8.978;2024-03-08T00:52:22;51.20;;;26.08;;
27025;SDS011;14565;48.626;8.978;2024-03-08T00:54:49;53.15;;;27.20;;
27025;SDS011;14565;48.626;8.978;2024-03-08T00:57:15;54.75;;;27.20;;
27025;SDS011;14565;48.626;8.978;2024-03-08T00:59:40;58.58;;;27.25;;
27025;SDS011;14565;48.626;8.978;2024-03-08T01:02:06;54.47;;;28.02;;
27025;SDS011;14565;48.626;8.978;2024-03-08T01:04:32;55.78;;;26.98;;
27025;SDS011;14565;48.626;8.978;2024-03-08T01:06:58;57.25;;;27.17;;
27025;SDS011;14565;48.626;8.978;2024-03-08T01:09:24;52.33;;;25.38;;
27025;SDS011;14565;48.626;8.978;2024-03-08T01:11:51;48.70;;;25.50;;
27025;SDS011;14565;48.626;8.978;2024-03-08T01:14:19;50.08;;;24.45;;
27025;SDS011;14565;48.626;8.978;2024-03-08T01:19:13;45.58;;;24.25;;
27025;SDS011;14565;48.626;8.978;2024-03-08T01:21:38;50.60;;;25.75;;
27025;SDS011;14565;48.626;8.978;2024-03-08T01:24:04;49.15;;;25.42;;
27025;SDS011;14565;48.626;8.978;2024-03-08T01:26:30;53.17;;;24.63;;
27025;SDS011;14565;48.626;8.978;2024-03-08T01:28:56;51.30;;;25.40;;
27025;SDS011;14565;48.626;8.978;2024-03-08T01:31:21;50.45;;;24.88;;
27025;SDS011;14565;48.626;8.978;2024-03-08T01:33:47;53.67;;;26.02;;
27025;SDS011;14565;48.626;8.978;2024-03-08T01:36:15;56.50;;;25.55;;
27025;SDS011;14565;48.626;8.978;2024-03-08T01:38:41;54.70;;;26.45;;
27025;SDS011;14565;48.626;8.978;2024-03-08T01:41:07;55.40;;;26.88;;
27025;SDS011;14565;48.626;8.978;2024-03-08T01:43:34;54.42;;;26.05;;
27025;SDS011;14565;48.626;8.978;2024-03-08T01:45:59;53.72;;;25.65;;
27025;SDS011;14565;48.626;8.978;2024-03-08T01:48:27;52.80;;;27.48;;
27025;SDS011;14565;48.626;8.978;2024-03-08T01:50:54;60.20;;;26.98;;
27025;SDS011;14565;48.626;8.978;2024-03-08T01:55:49;58.85;;;26.38;;
27025;SDS011;14565;48.626;8.978;2024-03-08T02:00:46;54.83;;;24.83;;
27025;SDS011;14565;48.626;8.978;2024-03-08T02:03:14;51.72;;;25.38;;
27025;SDS011;14565;48.626;8.978;2024-03-08T02:05:41;59.03;;;27.45;;
27025;SDS011;14565;48.626;8.978;2024-03-08T02:08:07;55.42;;;26.48;;
27025;SDS011;14565;48.626;8.978;2024-03-08T02:10:37;50.63;;;24.88;;
27025;SDS011;14565;48.626;8.978;2024-03-08T02:13:04;55.88;;;25.98;;
27025;SDS011;14565;48.626;8.978;2024-03-08T02:18:22;58.63;;;26.13;;
27025;SDS011;14565;48.626;8.978;2024-03-08T02:20:51;54.20;;;26.02;;
27025;SDS011;14565;48.626;8.978;2024-03-08T02:23:21;56.15;;;25.67;;
27025;SDS011;14565;48.626;8.978;2024-03-08T02:25:47;59.15;;;25.70;;
27025;SDS011;14565;48.626;8.978;2024-03-08T02:28:14;58.17;;;25.58;;
27025;SDS011;14565;48.626;8.978;2024-03-08T02:30:39;54.70;;;26.33;;
27025;SDS011;14565;48.626;8.978;2024-03-08T02:33:05;59.17;;;27.20;;
27025;SDS011;14565;48.626;8.978;2024-03-08T02:35:32;63.20;;;26.60;;
27025;SDS011;14565;48.626;8.978;2024-03-08T02:37:58;60.80;;;26.63;;
27025;SDS011;14565;48.626;8.978;2024-03-08T02:40:24;56.85;;;24.80;;
27025;SDS011;14565;48.626;8.978;2024-03-08T02:42:50;54.38;;;26.58;;
27025;SDS011;14565;48.626;8.978;2024-03-08T02:45:16;55.95;;;25.58;;
27025;SDS011;14565;48.626;8.978;2024-03-08T02:47:42;58.33;;;26.00;;
27025;SDS011;14565;48.626;8.978;2024-03-08T02:50:07;56.90;;;25.23;;
27025;SDS011;14565;48.626;8.978;2024-03-08T02:52:34;57.72;;;25.38;;
27025;SDS011;14565;48.626;8.978;2024-03-08T02:55:00;58.50;;;25.92;;
27025;SDS011;14565;48.626;8.978;2024-03-08T02:57:31;58.70;;;25.85;;
27025;SDS011;14565;48.626;8.978;2024-03-08T02:59:57;61.53;;;27.02;;
27025;SDS011;14565;48.626;8.978;2024-03-08T03:02:24;58.10;;;26.85;;
27025;SDS011;14565;48.626;8.978;2024-03-08T03:04:51;61.70;;;26.90;;
27025;SDS011;14565;48.626;8.978;2024-03-08T03:07:17;56.33;;;27.20;;
27025;SDS011;14565;48.626;8.978;2024-03-08T03:09:43;62.72;;;28.90;;
27025;SDS011;14565;48.626;8.978;2024-03-08T03:12:08;66.13;;;28.15;;
27025;SDS011;14565;48.626;8.978;2024-03-08T03:14:37;62.55;;;27.67;;
27025;SDS011;14565;48.626;8.978;2024-03-08T03:17:05;61.17;;;27.60;;
27025;SDS011;14565;48.626;8.978;2024-03-08T03:19:31;61.13;;;26.95;;
27025;SDS011;14565;48.626;8.978;2024-03-08T03:21:57;59.92;;;26.45;;
27025;SDS011;14565;48.626;8.978;2024-03-08T03:24:22;72.90;;;27.45;;
27025;SDS011;14565;48.626;8.978;2024-03-08T03:26:48;56.65;;;27.48;;
27025;SDS011;14565;48.626;8.978;2024-03-08T03:29:14;57.75;;;26.48;;
27025;SDS011;14565;48.626;8.978;2024-03-08T03:31:41;63.20;;;27.38;;
27025;SDS011;14565;48.626;8.978;2024-03-08T03:34:07;53.90;;;25.05;;
27025;SDS011;14565;48.626;8.978;2024-03-08T03:36:33;61.63;;;27.15;;
27025;SDS011;14565;48.626;8.978;2024-03-08T03:39:00;61.03;;;27.52;;
27025;SDS011;14565;48.626;8.978;2024-03-08T03:41:41;59.00;;;28.15;;
27025;SDS011;14565;48.626;8.978;2024-03-08T03:44:07;64.03;;;27.15;;
27025;SDS011;14565;48.626;8.978;2024-03-08T03:46:33;66.88;;;28.50;;
27025;SDS011;14565;48.626;8.978;2024-03-08T03:48:59;61.30;;;25.95;;
27025;SDS011;14565;48.626;8.978;2024-03-08T03:51:24;63.55;;;27.27;;
27025;SDS011;14565;48.626;8.978;2024-03-08T03:53:51;59.95;;;27.45;;
27025;SDS011;14565;48.626;8.978;2024-03-08T03:56:18;60.13;;;26.43;;
27025;SDS011;14565;48.626;8.978;2024-03-08T03:58:43;61.75;;;28.27;;
27025;SDS011;14565;48.626;8.978;2024-03-08T04:01:09;59.80;;;27.73;;
27025;SDS011;14565;48.626;8.978;2024-03-08T04:03:35;64.60;;;28.40;;
27025;SDS011;14565;48.626;8.978;2024-03-08T04:06:01;60.55;;;26.33;;
27025;SDS011;14565;48.626;8.978;2024-03-08T04:08:30;61.45;;;28.20;;
27025;SDS011;14565;48.626;8.978;2024-03-08T04:10:56;60.00;;;27.33;;
27025;SDS011;14565;48.626;8.978;2024-03-08T04:13:23;66.57;;;28.95;;
27025;SDS011;14565;48.626;8.978;2024-03-08T04:15:48;58.70;;;27.88;;
27025;SDS011;14565;48.626;8.978;2024-03-08T04:18:14;62.22;;;25.50;;
27025;SDS011;14565;48.626;8.978;2024-03-08T04:20:40;60.95;;;27.13;;
27025;SDS011;14565;48.626;8.978;2024-03-08T04:23:06;53.22;;;24.85;;
27025;SDS011;14565;48.626;8.978;2024-03-08T04:25:31;61.35;;;27.08;;
27025;SDS011;14565;48.626;8.978;2024-03-08T04:27:57;60.15;;;26.20;;
27025;SDS011;14565;48.626;8.978;2024-03-08T04:30:23;59.03;;;26.20;;
27025;SDS011;14565;48.626;8.978;2024-03-08T04:32:49;64.85;;;27.65;;
27025;SDS011;14565;48.626;8.978;2024-03-08T04:35:15;58.30;;;26.27;;
27025;SDS011;14565;48.626;8.978;2024-03-08T04:37:41;60.45;;;24.85;;
27025;SDS011;14565;48.626;8.978;2024-03-08T04:40:07;57.10;;;27.95;;
27025;SDS011;14565;48.626;8.978;2024-03-08T04:42:33;54.97;;;25.45;;
27025;SDS011;14565;48.626;8.978;2024-03-08T04:44:59;61.22;;;26.58;;
27025;SDS011;14565;48.626;8.978;2024-03-08T04:47:25;54.05;;;25.50;;
27025;SDS011;14565;48.626;8.978;2024-03-08T04:49:51;57.85;;;25.15;;
27025;SDS011;14565;48.626;8.978;2024-03-08T04:52:17;63.85;;;26.77;;
27025;SDS011;14565;48.626;8.978;2024-03-08T04:54:43;57.95;;;24.92;;
27025;SDS011;14565;48.626;8.978;2024-03-08T04:57:09;61.13;;;25.73;;
27025;SDS011;14565;48.626;8.978;2024-03-08T04:59:36;62.35;;;27.13;;
27025;SDS011;14565;48.626;8.978;2024-03-08T05:02:01;63.38;;;28.33;;
27025;SDS011;14565;48.626;8.978;2024-03-08T05:04:27;64.63;;;28.90;;
27025;SDS011;14565;48.626;8.978;2024-03-08T05:06:54;68.10;;;28.92;;
27025;SDS011;14565;48.626;8.978;2024-03-08T05:09:19;66.60;;;28.55;;
27025;SDS011;14565;48.626;8.978;2024-03-08T05:11:45;67.55;;;27.98;;
27025;SDS011;14565;48.626;8.978;2024-03-08T05:14:12;65.68;;;28.15;;
27025;SDS011;14565;48.626;8.978;2024-03-08T05:16:44;64.80;;;27.55;;
27025;SDS011;14565;48.626;8.978;2024-03-08T05:19:14;64.57;;;27.63;;
27025;SDS011;14565;48.626;8.978;2024-03-08T05:21:42;67.15;;;28.90;;
27025;SDS011;14565;48.626;8.978;2024-03-08T05:24:11;61.72;;;27.48;;
27025;SDS011;14565;48.626;8.978;2024-03-08T05:26:38;62.63;;;26.50;;
27025;SDS011;14565;48.626;8.978;2024-03-08T05:29:04;61.20;;;26.27;;
27025;SDS011;14565;48.626;8.978;2024-03-08T05:31:30;58.38;;;25.95;;
27025;SDS011;14565;48.626;8.978;2024-03-08T05:34:14;57.95;;;25.75;;
27025;SDS011;14565;48.626;8.978;2024-03-08T05:36:41;58.60;;;26.63;;
27025;SDS011;14565;48.626;8.978;2024-03-08T05:39:11;55.33;;;26.25;;
27025;SDS011;14565;48.626;8.978;2024-03-08T05:41:41;58.83;;;25.38;;
27025;SDS011;14565;48.626;8.978;2024-03-08T05:44:07;64.00;;;27.48;;
27025;SDS011;14565;48.626;8.978;2024-03-08T05:46:33;61.38;;;27.45;;
27025;SDS011;14565;48.626;8.978;2024-03-08T05:49:01;70.75;;;28.15;;
27025;SDS011;14565;48.626;8.978;2024-03-08T05:51:31;67.65;;;28.58;;
27025;SDS011;14565;48.626;8.978;2024-03-08T05:54:03;57.47;;;27.45;;
27025;SDS011;14565;48.626;8.978;2024-03-08T05:56:30;63.35;;;27.60;;
27025;SDS011;14565;48.626;8.978;2024-03-08T05:58:59;59.97;;;26.88;;
27025;SDS011;14565;48.626;8.978;2024-03-08T06:01:25;59.65;;;26.88;;
27025;SDS011;14565;48.626;8.978;2024-03-08T06:03:54;63.25;;;28.35;;
27025;SDS011;14565;48.626;8.978;2024-03-08T06:06:25;62.67;;;28.23;;
27025;SDS011;14565;48.626;8.978;2024-03-08T06:08:51;58.95;;;27.48;;
27025;SDS011;14565;48.626;8.978;2024-03-08T06:11:18;55.08;;;26.80;;
27025;SDS011;14565;48.626;8.978;2024-03-08T06:13:47;60.25;;;27.17;;
27025;SDS011;14565;48.626;8.978;2024-03-08T06:16:14;53.97;;;26.17;;
27025;SDS011;14565;48.626;8.978;2024-03-08T06:18:40;52.90;;;25.85;;
27025;SDS011;14565;48.626;8.978;2024-03-08T06:21:06;52.75;;;23.42;;
27025;SDS011;14565;48.626;8.978;2024-03-08T06:23:37;55.70;;;24.20;;
27025;SDS011;14565;48.626;8.978;2024-03-08T06:26:06;47.38;;;22.77;;
27025;SDS011;14565;48.626;8.978;2024-03-08T06:28:35;50.58;;;23.40;;
27025;SDS011;14565;48.626;8.978;2024-03-08T06:31:02;46.70;;;23.10;;
27025;SDS011;14565;48.626;8.978;2024-03-08T06:33:28;51.53;;;23.98;;
27025;SDS011;14565;48.626;8.978;2024-03-08T06:35:54;47.35;;;23.20;;
27025;SDS011;14565;48.626;8.978;2024-03-08T06:38:23;49.28;;;23.25;;
27025;SDS011;14565;48.626;8.978;2024-03-08T06:40:49;43.15;;;22.73;;
27025;SDS011;14565;48.626;8.978;2024-03-08T06:43:16;41.05;;;21.38;;
27025;SDS011;14565;48.626;8.978;2024-03-08T06:45:42;42.60;;;22.00;;
27025;SDS011;14565;48.626;8.978;2024-03-08T06:48:22;48.47;;;21.70;;
27025;SDS011;14565;48.626;8.978;2024-03-08T06:50:48;44.58;;;22.27;;
27025;SDS011;14565;48.626;8.978;2024-03-08T06:53:14;42.53;;;20.63;;
27025;SDS011;14565;48.626;8.978;2024-03-08T06:55:39;48.47;;;22.33;;
27025;SDS011;14565;48.626;8.978;2024-03-08T06:58:08;39.45;;;20.83;;
27025;SDS011;14565;48.626;8.978;2024-03-08T07:00:35;38.25;;;20.40;;
27025;SDS011;14565;48.626;8.978;2024-03-08T07:03:07;42.55;;;20.85;;
27025;SDS011;14565;48.626;8.978;2024-03-08T07:05:55;40.63;;;21.35;;
27025;SDS011;14565;48.626;8.978;2024-03-08T07:08:23;39.40;;;20.25;;
27025;SDS011;14565;48.626;8.978;2024-03-08T07:10:55;43.65;;;23.00;;
27025;SDS011;14565;48.626;8.978;2024-03-08T07:13:23;38.92;;;20.48;;
27025;SDS011;14565;48.626;8.978;2024-03-08T07:15:50;48.17;;;22.23;;
27025;SDS011;14565;48.626;8.978;2024-03-08T07:18:19;42.60;;;22.58;;
27025;SDS011;14565;48.626;8.978;2024-03-08T07:20:47;44.80;;;22.35;;
27025;SDS011;14565;48.626;8.978;2024-03-08T07:23:14;45.92;;;23.55;;
27025;SDS011;14565;48.626;8.978;2024-03-08T07:26:00;40.95;;;20.98;;
27025;SDS011;14565;48.626;8.978;2024-03-08T07:28:26;41.53;;;22.08;;
27025;SDS011;14565;48.626;8.978;2024-03-08T07:30:52;39.00;;;20.10;;
27025;SDS011;14565;48.626;8.978;2024-03-08T07:33:51;37.65;;;21.05;;
27025;SDS011;14565;48.626;8.978;2024-03-08T07:36:20;40.85;;;21.20;;
27025;SDS011;14565;48.626;8.978;2024-03-08T07:38:47;41.08;;;21.42;;
27025;SDS011;14565;48.626;8.978;2024-03-08T07:41:13;36.17;;;20.50;;
27025;SDS011;14565;48.626;8.978;2024-03-08T07:43:40;35.07;;;19.33;;
27025;SDS011;14565;48.626;8.978;2024-03-08T07:46:11;33.13;;;17.98;;
27025;SDS011;14565;48.626;8.978;2024-03-08T07:48:41;33.60;;;18.58;;
27025;SDS011;14565;48.626;8.978;2024-03-08T07:51:15;35.20;;;19.38;;
27025;SDS011;14565;48.626;8.978;2024-03-08T07:53:47;35.85;;;19.80;;
27025;SDS011;14565;48.626;8.978;2024-03-08T07:56:16;37.30;;;20.25;;
27025;SDS011;14565;48.626;8.978;2024-03-08T07:58:46;36.55;;;19.48;;
27025;SDS011;14565;48.626;8.978;2024-03-08T08:01:18;35.85;;;19.20;;
27025;SDS011;14565;48.626;8.978;2024-03-08T08:03:44;36.55;;;18.90;;
27025;SDS011;14565;48.626;8.978;2024-03-08T08:06:10;34.55;;;19.38;;
27025;SDS011;14565;48.626;8.978;2024-03-08T08:08:44;30.23;;;17.70;;
27025;SDS011;14565;48.626;8.978;2024-03-08T08:11:12;31.17;;;17.70;;
27025;SDS011;14565;48.626;8.978;2024-03-08T08:13:43;31.52;;;17.08;;
27025;SDS011;14565;48.626;8.978;2024-03-08T08:16:09;32.00;;;18.15;;
27025;SDS011;14565;48.626;8.978;2024-03-08T08:18:38;30.73;;;17.75;;
27025;SDS011;14565;48.626;8.978;2024-03-08T08:21:04;28.23;;;15.80;;
27025;SDS011;14565;48.626;8.978;2024-03-08T08:23:33;28.20;;;16.83;;
27025;SDS011;14565;48.626;8.978;2024-03-08T08:26:07;32.25;;;18.13;;
27025;SDS011;14565;48.626;8.978;2024-03-08T08:28:33;29.83;;;17.42;;
27025;SDS011;14565;48.626;8.978;2024-03-08T08:30:59;32.67;;;17.73;;
27025;SDS011;14565;48.626;8.978;2024-03-08T08:33:25;34.97;;;18.38;;
27025;SDS011;14565;48.626;8.978;2024-03-08T08:35:54;33.55;;;17.13;;
27025;SDS011;14565;48.626;8.978;2024-03-08T08:38:23;30.50;;;16.75;;
27025;SDS011;14565;48.626;8.978;2024-03-08T08:40:49;32.38;;;17.65;;
27025;SDS011;14565;48.626;8.978;2024-03-08T08:43:21;30.85;;;17.38;;
27025;SDS011;14565;48.626;8.978;2024-03-08T08:46:04;32.28;;;17.75;;
27025;SDS011;14565;48.626;8.978;2024-03-08T08:48:39;28.45;;;16.27;;
27025;SDS011;14565;48.626;8.978;2024-03-08T08:51:22;28.70;;;16.85;;
27025;SDS011;14565;48.626;8.978;2024-03-08T08:53:59;30.55;;;18.20;;
27025;SDS011;14565;48.626;8.978;2024-03-08T08:56:34;32.47;;;16.88;;
27025;SDS011;14565;48.626;8.978;2024-03-08T08:59:00;30.80;;;17.27;;
27025;SDS011;14565;48.626;8.978;2024-03-08T09:01:32;28.13;;;15.95;;
27025;SDS011;14565;48.626;8.978;2024-03-08T09:04:20;30.33;;;16.38;;
27025;SDS011;14565;48.626;8.978;2024-03-08T09:06:46;29.85;;;16.88;;
27025;SDS011;14565;48.626;8.978;2024-03-08T09:09:12;31.25;;;17.10;;
27025;SDS011;14565;48.626;8.978;2024-03-08T09:11:55;30.17;;;17.27;;
27025;SDS011;14565;48.626;8.978;2024-03-08T09:14:30;31.33;;;16.88;;
27025;SDS011;14565;48.626;8.978;2024-03-08T09:17:19;29.63;;;16.13;;
27025;SDS011;14565;48.626;8.978;2024-03-08T09:20:07;29.85;;;16.63;;
27025;SDS011;14565;48.626;8.978;2024-03-08T09:23:00;28.45;;;16.58;;
27025;SDS011;14565;48.626;8.978;2024-03-08T09:28:29;27.88;;;16.83;;
27025;SDS011;14565;48.626;8.978;2024-03-08T09:30:58;27.58;;;16.10;;
27025;SDS011;14565;48.626;8.978;2024-03-08T09:33:31;28.75;;;16.75;;
27025;SDS011;14565;48.626;8.978;2024-03-08T09:36:12;26.33;;;15.52;;
27025;SDS011;14565;48.626;8.978;2024-03-08T09:39:14;27.67;;;15.68;;
27025;SDS011;14565;48.626;8.978;2024-03-08T09:41:51;27.70;;;15.38;;
27025;SDS011;14565;48.626;8.978;2024-03-08T09:44:33;26.35;;;14.80;;
27025;SDS011;14565;48.626;8.978;2024-03-08T09:47:07;40.45;;;24.55;;
27025;SDS011;14565;48.626;8.978;2024-03-08T09:49:52;26.02;;;16.55;;
27025;SDS011;14565;48.626;8.978;2024-03-08T09:52:38;27.90;;;17.17;;
27025;SDS011;14565;48.626;8.978;2024-03-08T09:55:29;27.00;;;15.18;;
27025;SDS011;14565;48.626;8.978;2024-03-08T09:58:05;27.30;;;14.55;;
27025;SDS011;14565;48.626;8.978;2024-03-08T10:00:56;26.15;;;15.13;;
27025;SDS011;14565;48.626;8.978;2024-03-08T10:03:31;26.75;;;15.75;;
27025;SDS011;14565;48.626;8.978;2024-03-08T10:06:02;23.58;;;14.07;;
27025;SDS011;14565;48.626;8.978;2024-03-08T10:08:44;25.40;;;14.38;;
27025;SDS011;14565;48.626;8.978;2024-03-08T10:14:49;24.67;;;14.50;;
27025;SDS011;14565;48.626;8.978;2024-03-08T10:20:32;24.55;;;14.98;;
27025;SDS011;14565;48.626;8.978;2024-03-08T10:23:07;22.02;;;13.27;;
27025;SDS011;14565;48.626;8.978;2024-03-08T10:26:09;22.35;;;13.52;;
27025;SDS011;14565;48.626;8.978;2024-03-08T10:31:46;21.90;;;13.20;;
27025;SDS011;14565;48.626;8.978;2024-03-08T10:37:12;22.60;;;13.85;;
27025;SDS011;14565;48.626;8.978;2024-03-08T10:39:52;21.33;;;13.23;;
27025;SDS011;14565;48.626;8.978;2024-03-08T10:49:51;17.98;;;12.50;;
27025;SDS011;14565;48.626;8.978;2024-03-08T10:52:45;20.55;;;12.23;;
27025;SDS011;14565;48.626;8.978;2024-03-08T10:55:15;21.20;;;12.02;;
27025;SDS011;14565;48.626;8.978;2024-03-08T10:57:48;21.60;;;12.77;;
27025;SDS011;14565;48.626;8.978;2024-03-08T11:07:22;20.13;;;12.40;;
27025;SDS011;14565;48.626;8.978;2024-03-08T11:09:50;20.50;;;12.13;;
27025;SDS011;14565;48.626;8.978;2024-03-08T11:12:20;19.77;;;12.30;;
27025;SDS011;14565;48.626;8.978;2024-03-08T11:14:54;17.85;;;11.40;;
27025;SDS011;14565;48.626;8.978;2024-03-08T11:19:59;21.38;;;13.43;;
27025;SDS011;14565;48.626;8.978;2024-03-08T11:22:30;21.77;;;13.48;;
27025;SDS011;14565;48.626;8.978;2024-03-08T11:24:58;23.25;;;12.82;;
27025;SDS011;14565;48.626;8.978;2024-03-08T11:27:30;21.95;;;13.63;;
27025;SDS011;14565;48.626;8.978;2024-03-08T11:30:01;22.52;;;14.25;;
27025;SDS011;14565;48.626;8.978;2024-03-08T11:32:37;20.90;;;13.30;;
27025;SDS011;14565;48.626;8.978;2024-03-08T11:35:07;20.63;;;12.18;;
27025;SDS011;14565;48.626;8.978;2024-03-08T11:37:43;21.45;;;13.40;;
27025;SDS011;14565;48.626;8.978;2024-03-08T11:40:13;22.17;;;12.48;;
27025;SDS011;14565;48.626;8.978;2024-03-08T11:42:44;20.45;;;12.65;;
27025;SDS011;14565;48.626;8.978;2024-03-08T11:45:12;19.50;;;11.40;;
27025;SDS011;14565;48.626;8.978;2024-03-08T11:47:41;20.30;;;12.02;;
27025;SDS011;14565;48.626;8.978;2024-03-08T11:50:07;22.02;;;13.30;;
27025;SDS011;14565;48.626;8.978;2024-03-08T11:52:36;22.88;;;13.50;;
27025;SDS011;14565;48.626;8.978;2024-03-08T11:55:02;23.15;;;15.05;;
27025;SDS011;14565;48.626;8.978;2024-03-08T11:57:28;22.80;;;13.73;;
27025;SDS011;14565;48.626;8.978;2024-03-08T11:59:54;23.23;;;13.13;;
27025;SDS011;14565;48.626;8.978;2024-03-08T12:02:30;22.30;;;13.02;;
27025;SDS011;14565;48.626;8.978;2024-03-08T12:04:57;23.88;;;13.90;;
27025;SDS011;14565;48.626;8.978;2024-03-08T12:07:24;22.20;;;13.98;;
27025;SDS011;14565;48.626;8.978;2024-03-08T12:12:43;21.45;;;12.88;;
27025;SDS011;14565;48.626;8.978;2024-03-08T12:15:09;24.33;;;14.63;;
27025;SDS011;14565;48.626;8.978;2024-03-08T12:17:36;22.42;;;12.77;;
27025;SDS011;14565;48.626;8.978;2024-03-08T12:20:17;24.52;;;15.13;;
27025;SDS011;14565;48.626;8.978;2024-03-08T12:22:43;22.80;;;13.38;;
27025;SDS011;14565;48.626;8.978;2024-03-08T12:25:12;23.85;;;14.05;;
27025;SDS011;14565;48.626;8.978;2024-03-08T12:27:39;22.88;;;14.02;;
27025;SDS011;14565;48.626;8.978;2024-03-08T12:30:19;26.65;;;15.75;;
27025;SDS011;14565;48.626;8.978;2024-03-08T12:32:55;26.42;;;13.57;;
27025;SDS011;14565;48.626;8.978;2024-03-08T12:35:23;21.83;;;13.85;;
27025;SDS011;14565;48.626;8.978;2024-03-08T12:37:51;24.30;;;14.48;;
27025;SDS011;14565;48.626;8.978;2024-03-08T12:42:45;24.88;;;13.93;;
27025;SDS011;14565;48.626;8.978;2024-03-08T12:45:12;25.55;;;15.40;;
27025;SDS011;14565;48.626;8.978;2024-03-08T12:47:39;21.42;;;13.70;;
27025;SDS011;14565;48.626;8.978;2024-03-08T12:50:07;23.80;;;14.48;;
27025;SDS011;14565;48.626;8.978;2024-03-08T12:52:34;22.42;;;12.90;;
27025;SDS011;14565;48.626;8.978;2024-03-08T12:54:59;22.27;;;14.10;;
27025;SDS011;14565;48.626;8.978;2024-03-08T12:57:31;21.95;;;14.55;;
27025;SDS011;14565;48.626;8.978;2024-03-08T12:59:59;21.58;;;13.60;;
27025;SDS011;14565;48.626;8.978;2024-03-08T13:02:24;23.08;;;13.20;;
27025;SDS011;14565;48.626;8.978;2024-03-08T13:04:51;22.75;;;13.02;;
27025;SDS011;14565;48.626;8.978;2024-03-08T13:07:22;23.38;;;13.45;;
27025;SDS011;14565;48.626;8.978;2024-03-08T13:09:51;20.63;;;12.70;;
27025;SDS011;14565;48.626;8.978;2024-03-08T13:12:18;25.65;;;15.38;;
27025;SDS011;14565;48.626;8.978;2024-03-08T13:14:45;21.80;;;13.88;;
27025;SDS011;14565;48.626;8.978;2024-03-08T13:17:11;22.77;;;13.10;;
27025;SDS011;14565;48.626;8.978;2024-03-08T13:19:38;23.25;;;14.20;;
27025;SDS011;14565;48.626;8.978;2024-03-08T13:22:04;23.75;;;13.57;;
27025;SDS011;14565;48.626;8.978;2024-03-08T13:24:29;24.50;;;14.35;;
27025;SDS011;14565;48.626;8.978;2024-03-08T13:26:55;21.85;;;13.27;;
27025;SDS011;14565;48.626;8.978;2024-03-08T13:29:22;20.77;;;12.82;;
27025;SDS011;14565;48.626;8.978;2024-03-08T13:31:48;22.15;;;13.40;;
27025;SDS011;14565;48.626;8.978;2024-03-08T13:34:16;22.27;;;13.13;;
27025;SDS011;14565;48.626;8.978;2024-03-08T13:36:43;24.02;;;14.80;;
27025;SDS011;14565;48.626;8.978;2024-03-08T13:39:09;20.33;;;12.63;;
27025;SDS011;14565;48.626;8.978;2024-03-08T13:41:41;24.48;;;13.63;;
27025;SDS011;14565;48.626;8.978;2024-03-08T13:44:07;23.00;;;13.70;;
27025;SDS011;14565;48.626;8.978;2024-03-08T13:46:33;23.30;;;13.98;;
27025;SDS011;14565;48.626;8.978;2024-03-08T13:49:04;20.10;;;12.77;;
27025;SDS011;14565;48.626;8.978;2024-03-08T13:51:32;23.70;;;13.88;;
27025;SDS011;14565;48.626;8.978;2024-03-08T13:53:58;22.75;;;14.38;;
27025;SDS011;14565;48.626;8.978;2024-03-08T13:56:25;23.38;;;13.55;;
27025;SDS011;14565;48.626;8.978;2024-03-08T13:58:57;22.88;;;13.10;;
27025;SDS011;14565;48.626;8.978;2024-03-08T14:01:23;24.42;;;14.52;;
27025;SDS011;14565;48.626;8.978;2024-03-08T14:03:48;22.77;;;13.30;;
27025;SDS011;14565;48.626;8.978;2024-03-08T14:06:14;21.60;;;12.65;;
27025;SDS011;14565;48.626;8.978;2024-03-08T14:08:40;24.25;;;14.68;;
27025;SDS011;14565;48.626;8.978;2024-03-08T14:11:05;21.50;;;13.13;;
27025;SDS011;14565;48.626;8.978;2024-03-08T14:13:43;26.65;;;15.52;;
27025;SDS011;14565;48.626;8.978;2024-03-08T14:16:12;24.70;;;13.88;;
27025;SDS011;14565;48.626;8.978;2024-03-08T14:18:38;22.95;;;14.50;;
27025;SDS011;14565;48.626;8.978;2024-03-08T14:21:04;24.02;;;14.15;;
27025;SDS011;14565;48.626;8.978;2024-03-08T14:23:30;26.27;;;16.20;;
27025;SDS011;14565;48.626;8.978;2024-03-08T14:25:57;24.13;;;15.13;;
27025;SDS011;14565;48.626;8.978;2024-03-08T14:28:24;23.45;;;14.73;;
27025;SDS011;14565;48.626;8.978;2024-03-08T14:30:51;23.20;;;14.10;;
27025;SDS011;14565;48.626;8.978;2024-03-08T14:33:17;23.73;;;13.82;;
27025;SDS011;14565;48.626;8.978;2024-03-08T14:35:43;23.40;;;14.85;;
27025;SDS011;14565;48.626;8.978;2024-03-08T14:38:09;26.55;;;14.95;;
27025;SDS011;14565;48.626;8.978;2024-03-08T14:40:36;24.35;;;14.05;;
27025;SDS011;14565;48.626;8.978;2024-03-08T14:43:02;22.92;;;11.90;;
27025;SDS011;14565;48.626;8.978;2024-03-08T14:45:29;25.83;;;15.88;;
27025;SDS011;14565;48.626;8.978;2024-03-08T14:47:55;26.92;;;15.60;;
27025;SDS011;14565;48.626;8.978;2024-03-08T14:50:22;24.23;;;13.75;;
27025;SDS011;14565;48.626;8.978;2024-03-08T14:52:49;21.17;;;12.85;;
27025;SDS011;14565;48.626;8.978;2024-03-08T14:55:15;24.52;;;13.90;;
27025;SDS011;14565;48.626;8.978;2024-03-08T14:57:44;24.58;;;14.70;;
27025;SDS011;14565;48.626;8.978;2024-03-08T15:00:11;23.73;;;13.82;;
27025;SDS011;14565;48.626;8.978;2024-03-08T15:02:45;24.73;;;14.20;;
27025;SDS011;14565;48.626;8.978;2024-03-08T15:05:11;23.27;;;13.45;;
27025;SDS011;14565;48.626;8.978;2024-03-08T15:07:38;26.33;;;13.98;;
27025;SDS011;14565;48.626;8.978;2024-03-08T15:10:07;24.08;;;14.43;;
27025;SDS011;14565;48.626;8.978;2024-03-08T15:12:38;22.80;;;13.02;;
27025;SDS011;14565;48.626;8.978;2024-03-08T15:15:05;24.55;;;13.93;;
27025;SDS011;14565;48.626;8.978;2024-03-08T15:17:33;24.35;;;13.18;;
27025;SDS011;14565;48.626;8.978;2024-03-08T15:19:59;22.70;;;13.23;;